Pinedale, WY

2:31 PM MDT on August 27, 2016 (GMT -0600)
Wenz | | Change Station
Active Advisory: Fire Weather Warning Active Notice: Record Report

Elev 7087 ft 42.80 °N, 109.81 °W | Updated 16 minutes ago

Clear
Clear
68 °F
Feels Like 68 °F
N
7
Wind Variable Wind from WNW

Today
High -- | Low -- °F
--% Chance of Precip.
Yesterday
High -- | Low -- °F
Precip. -- in
Pressure 30.19 in
Visibility 10.0 miles
Clouds Clear
Dew Point 23 °F
Humidity 18%
Rainfall 0.00 in
Snow Depth Not available.
6:39 AM 8:01 PM
Waning Crescent, 22% visible
METAR KPNA 272015Z AUTO 29006KT 10SM CLR 20/M05 A3019 RMK AO2
Pressure 30.19 in
Visibility 10.0 miles
Clouds Clear
Dew Point 23 °F
Humidity 18%
Rainfall 0.00 in
Snow Depth Not available.
6:39 AM 8:01 PM
Waning Crescent, 22% visible
METAR KPNA 272015Z AUTO 29006KT 10SM CLR 20/M05 A3019 RMK AO2

10-Day Weather Forecast

Almanac

Astronomy

Aug. 27, 2016 Rise Set
Actual Time
Civil Twilight
Nautical Twilight
Astronomical Twilight
Moon
Length of Visible Light
Length of Day
Tomorrow will be .
, % of the Moon is Illuminated

Today's Extremes

State Highs State Lows

Community

WunderPhotos

Upload Photos

1,935,434 photos uploaded!

WunderBlog® & News

Nearby

Air Quality

  Air Quality AQ Index Pollutant
Not available.

Snow Depth

Station Depth Elevation

Earthquake Activity

City Distance Mag. Time & Date
Minimum magnitude displayed is 2.5.

Coastal Water Temperatures

Place Temperature

Stations

Nearby Weather Stations

Station Location Temp. Windchill Dew Point Humidity Wind Precip. Elev Updated Type
                   

Watches & Warnings

Fire Weather Warning
Issued: 1:46 PM MDT Aug. 27, 2016 – National Weather Service

... Red flag warning remains in effect until 8 PM MDT this evening
for low humidity... strong wind gusts... and critically dry fuels
for fire weather zones 277... 278 and 279...

* wind... southwest 10 to 15 with gusts to 25 mph in the
afternoon and early evening hours.

* Humidity... 10 to 15 percent.

* Impacts... any fires that develop will likely spread rapidly.
Outdoor burning is strongly discouraged.

Precautionary/preparedness actions...

A red flag warning means that critical fire weather conditions
are either occurring now... .or will shortly. A combination of
strong winds... low relative humidity... and warm temperatures can
contribute to extreme fire behavior.